createdAt,value
2019-02-26T00:00:04.468Z,1.40
2019-02-26T00:02:32.476Z,1.50
2019-02-26T00:05:00.787Z,1.40
2019-02-26T00:07:28.170Z,1.70
2019-02-26T00:09:55.732Z,1.60
2019-02-26T00:12:24.120Z,1.60
2019-02-26T00:14:52.930Z,1.70
2019-02-26T00:17:19.570Z,1.70
2019-02-26T00:19:47.193Z,1.70
2019-02-26T00:22:13.799Z,1.80
2019-02-26T00:24:42.661Z,1.80
2019-02-26T00:27:09.746Z,2.00
2019-02-26T00:29:35.903Z,1.90
2019-02-26T00:32:01.997Z,1.60
2019-02-26T00:34:29.918Z,1.50
2019-02-26T00:36:57.251Z,1.40
2019-02-26T00:39:25.102Z,1.40
2019-02-26T00:41:53.554Z,1.40
2019-02-26T00:44:21.273Z,1.40
2019-02-26T00:46:48.143Z,1.20
2019-02-26T00:49:14.251Z,1.20
2019-02-26T00:51:44.311Z,1.30
2019-02-26T00:54:08.402Z,1.30
2019-02-26T00:56:36.345Z,1.10
2019-02-26T00:59:02.863Z,1.10
2019-02-26T01:01:29.035Z,1.10
2019-02-26T01:03:55.174Z,1.10
2019-02-26T01:06:22.630Z,1.00
2019-02-26T01:08:49.337Z,1.00
2019-02-26T01:11:15.762Z,1.00
2019-02-26T01:13:41.918Z,0.90
2019-02-26T01:16:08.087Z,1.00
2019-02-26T01:18:34.165Z,0.80
2019-02-26T01:21:02.516Z,0.70
2019-02-26T01:23:28.996Z,0.60
2019-02-26T01:25:55.265Z,0.70
2019-02-26T01:28:36.611Z,0.70
2019-02-26T01:31:04.562Z,0.70
2019-02-26T01:33:32.167Z,0.70
2019-02-26T01:36:00.282Z,0.80
2019-02-26T01:38:26.612Z,0.80
2019-02-26T01:40:54.148Z,0.80
2019-02-26T01:43:20.811Z,0.70
2019-02-26T01:45:48.515Z,0.90
2019-02-26T01:48:16.723Z,1.10
2019-02-26T01:50:42.922Z,1.30
2019-02-26T01:53:09.052Z,1.40
2019-02-26T01:55:35.172Z,1.40
2019-02-26T01:58:01.267Z,1.20
2019-02-26T02:00:27.627Z,1.10
2019-02-26T02:02:53.812Z,1.00
2019-02-26T02:05:21.589Z,0.90
2019-02-26T02:07:51.173Z,0.90
2019-02-26T02:10:16.703Z,1.00
2019-02-26T02:12:42.848Z,1.10
2019-02-26T02:15:17.409Z,1.10
2019-02-26T02:17:42.242Z,1.00
2019-02-26T02:20:13.089Z,0.90
2019-02-26T02:22:39.982Z,0.90
2019-02-26T02:25:08.378Z,0.80
2019-02-26T02:27:34.684Z,0.70
2019-02-26T02:30:00.881Z,0.60
2019-02-26T02:32:29.787Z,0.40
2019-02-26T02:34:58.283Z,0.50
2019-02-26T02:37:24.686Z,0.50
2019-02-26T02:39:51.134Z,0.50
2019-02-26T02:42:21.964Z,0.40
2019-02-26T02:44:49.268Z,0.70
2019-02-26T02:47:15.212Z,0.80
2019-02-26T02:49:42.461Z,0.90
2019-02-26T02:52:11.772Z,0.90
2019-02-26T02:54:38.590Z,0.80
2019-02-26T02:57:07.519Z,0.60
2019-02-26T02:59:34.060Z,0.60
2019-02-26T03:02:01.419Z,0.60
2019-02-26T03:04:29.090Z,0.60
2019-02-26T03:06:58.037Z,0.60
2019-02-26T03:09:23.728Z,0.50
2019-02-26T03:11:52.541Z,0.60
2019-02-26T03:14:18.671Z,0.50
2019-02-26T03:16:45.580Z,0.40
2019-02-26T03:19:14.531Z,0.40
2019-02-26T03:21:42.139Z,0.20
2019-02-26T03:24:10.507Z,0.40
2019-02-26T03:26:36.740Z,0.30
2019-02-26T03:29:03.014Z,0.30
2019-02-26T03:31:33.869Z,0.20
2019-02-26T03:34:04.219Z,0.20
2019-02-26T03:36:25.181Z,0.20
2019-02-26T03:38:53.765Z,0.20
2019-02-26T03:41:22.696Z,0.30
2019-02-26T03:43:47.370Z,0.30
2019-02-26T03:46:13.530Z,0.50
2019-02-26T03:48:39.590Z,0.40
2019-02-26T03:51:05.961Z,0.40
2019-02-26T03:53:34.275Z,0.40
2019-02-26T03:56:04.256Z,0.40
2019-02-26T03:58:28.139Z,0.40
2019-02-26T04:00:54.440Z,0.40
2019-02-26T04:03:20.653Z,0.50
2019-02-26T04:05:46.767Z,0.50
2019-02-26T04:08:12.879Z,0.40
2019-02-26T04:10:38.994Z,0.40
2019-02-26T04:13:05.134Z,0.40
2019-02-26T04:15:35.126Z,0.30
2019-02-26T04:17:59.197Z,0.30
2019-02-26T04:20:27.711Z,0.30
2019-02-26T04:22:56.650Z,0.30
2019-02-26T04:25:27.830Z,0.20
2019-02-26T04:27:58.997Z,0.20
2019-02-26T04:30:55.225Z,0.30
2019-02-26T04:33:36.014Z,0.30
2019-02-26T04:36:23.982Z,0.30
2019-02-26T04:39:22.360Z,0.20
2019-02-26T04:42:03.628Z,0.10
2019-02-26T04:44:52.403Z,0.00
2019-02-26T04:47:21.289Z,0.00
2019-02-26T04:49:46.924Z,0.10
2019-02-26T04:52:14.373Z,0.00
2019-02-26T04:54:41.100Z,0.00
2019-02-26T04:57:07.345Z,-0.10
2019-02-26T04:59:34.946Z,0.00
2019-02-26T05:02:01.980Z,0.00
2019-02-26T05:04:30.544Z,0.10
2019-02-26T05:06:56.340Z,0.10
2019-02-26T05:09:24.717Z,0.10
2019-02-26T05:11:50.765Z,0.00
2019-02-26T05:14:21.022Z,0.00
2019-02-26T05:16:44.892Z,-0.10
2019-02-26T05:19:13.541Z,-0.10
2019-02-26T05:21:39.096Z,-0.10
2019-02-26T05:24:05.183Z,0.00
2019-02-26T05:26:31.273Z,-0.10
2019-02-26T05:28:57.375Z,-0.10
2019-02-26T05:31:43.402Z,-0.10
2019-02-26T05:34:09.588Z,-0.10
2019-02-26T05:36:37.263Z,0.00
2019-02-26T05:39:05.300Z,0.00
2019-02-26T05:41:31.500Z,-0.10
2019-02-26T05:43:58.404Z,-0.20
2019-02-26T05:46:27.510Z,-0.30
2019-02-26T05:48:53.618Z,-0.20
2019-02-26T05:51:19.782Z,-0.10
2019-02-26T05:53:45.947Z,-0.20
2019-02-26T05:56:14.449Z,-0.10
2019-02-26T05:58:41.934Z,0.00
2019-02-26T06:01:08.026Z,0.20
2019-02-26T06:03:34.184Z,0.10
2019-02-26T06:06:00.575Z,0.10
2019-02-26T06:08:30.222Z,0.20
2019-02-26T06:10:54.993Z,0.20
2019-02-26T06:13:21.184Z,0.00
2019-02-26T06:15:47.308Z,0.00
2019-02-26T06:18:13.499Z,0.00
2019-02-26T06:20:39.817Z,-0.10
2019-02-26T06:23:05.996Z,-0.20
2019-02-26T06:25:32.172Z,-0.30
2019-02-26T06:28:02.320Z,-0.40
2019-02-26T06:30:26.304Z,-0.30
2019-02-26T06:32:52.438Z,-0.40
2019-02-26T06:35:19.418Z,-0.40
2019-02-26T06:37:45.777Z,-0.40
2019-02-26T06:40:13.888Z,-0.30
2019-02-26T06:42:40.397Z,-0.30
2019-02-26T06:45:10.989Z,-0.30
2019-02-26T06:47:37.516Z,-0.30
2019-02-26T06:50:08.076Z,-0.20
2019-02-26T06:52:37.272Z,0.10
2019-02-26T06:55:05.944Z,-0.20
2019-02-26T06:57:32.583Z,0.10
2019-02-26T07:00:01.345Z,0.20
2019-02-26T07:02:29.025Z,0.40
2019-02-26T07:04:54.831Z,0.60
2019-02-26T07:07:20.917Z,0.70
2019-02-26T07:09:47.014Z,0.80
2019-02-26T07:12:14.589Z,1.10
2019-02-26T07:14:41.118Z,1.20
2019-02-26T07:17:07.192Z,1.30
2019-02-26T07:19:35.637Z,1.50
2019-02-26T07:22:01.377Z,1.60
2019-02-26T07:24:27.586Z,1.80
2019-02-26T07:26:53.773Z,2.00
2019-02-26T07:29:20.022Z,2.20
2019-02-26T07:31:47.329Z,2.20
2019-02-26T07:34:15.749Z,2.40
2019-02-26T07:36:43.351Z,2.50
2019-02-26T07:39:12.950Z,2.60
2019-02-26T07:41:39.058Z,2.80
2019-02-26T07:44:09.051Z,2.80
2019-02-26T07:46:35.455Z,2.80
2019-02-26T07:49:02.638Z,2.80
2019-02-26T07:51:31.118Z,2.80
2019-02-26T07:53:58.394Z,3.00
2019-02-26T07:56:27.425Z,3.20
2019-02-26T07:58:57.031Z,3.50
2019-02-26T08:01:21.591Z,3.50
2019-02-26T08:03:48.781Z,3.70
2019-02-26T08:06:15.834Z,3.80
2019-02-26T08:08:42.592Z,3.90
2019-02-26T08:11:10.275Z,4.00
2019-02-26T08:13:36.657Z,4.30
2019-02-26T08:16:04.965Z,4.20
2019-02-26T08:18:30.891Z,4.80
2019-02-26T08:20:57.904Z,5.50
2019-02-26T08:23:26.401Z,6.00
2019-02-26T08:25:54.731Z,5.90
2019-02-26T08:28:22.518Z,5.80
2019-02-26T08:30:49.813Z,5.20
2019-02-26T08:33:16.863Z,4.90
2019-02-26T08:35:43.080Z,4.80
2019-02-26T08:38:09.175Z,4.90
2019-02-26T08:40:35.246Z,4.90
2019-02-26T08:43:01.392Z,5.00
2019-02-26T08:45:27.597Z,4.80
2019-02-26T08:47:53.816Z,4.90
2019-02-26T08:50:19.901Z,5.20
2019-02-26T08:52:47.737Z,5.40
2019-02-26T08:55:16.174Z,5.30
2019-02-26T08:57:42.535Z,5.40
2019-02-26T09:00:12.138Z,5.50
2019-02-26T09:02:38.305Z,5.60
2019-02-26T09:05:07.633Z,5.40
2019-02-26T09:07:34.823Z,5.50
2019-02-26T09:10:01.077Z,5.60
2019-02-26T09:12:27.375Z,5.90
2019-02-26T09:14:53.670Z,6.30
2019-02-26T09:17:23.107Z,6.40
2019-02-26T09:19:47.731Z,6.90
2019-02-26T09:22:14.956Z,7.10
2019-02-26T09:24:41.967Z,7.40
2019-02-26T09:27:08.206Z,7.90
2019-02-26T09:29:36.660Z,8.10
2019-02-26T09:32:02.328Z,8.30
2019-02-26T09:34:29.332Z,8.40
2019-02-26T09:36:58.178Z,8.40
2019-02-26T09:39:24.483Z,8.40
2019-02-26T09:41:50.687Z,8.70
2019-02-26T09:44:16.815Z,9.10
2019-02-26T09:46:43.896Z,9.40
2019-02-26T09:49:12.513Z,9.50
2019-02-26T09:51:40.013Z,9.90
2019-02-26T09:54:06.303Z,10.00
2019-02-26T09:56:32.401Z,10.00
2019-02-26T09:58:58.551Z,10.50
2019-02-26T10:01:24.669Z,10.50
2019-02-26T10:03:50.903Z,10.80
2019-02-26T10:06:19.225Z,11.30
2019-02-26T10:08:46.180Z,11.50
2019-02-26T10:11:13.063Z,11.60
2019-02-26T10:13:41.463Z,11.30
2019-02-26T10:16:08.943Z,11.20
2019-02-26T10:18:35.207Z,11.30
2019-02-26T10:21:01.342Z,11.30
2019-02-26T10:23:29.090Z,11.00
2019-02-26T10:25:57.503Z,11.10
2019-02-26T10:28:23.646Z,11.50
2019-02-26T10:30:49.760Z,11.90
2019-02-26T10:33:18.522Z,11.50
2019-02-26T10:35:45.592Z,11.70
2019-02-26T10:38:11.902Z,11.90
2019-02-26T10:40:50.632Z,12.00
2019-02-26T10:43:06.090Z,12.30
2019-02-26T10:45:36.192Z,12.70
2019-02-26T10:48:01.709Z,12.60
2019-02-26T10:50:31.525Z,12.60
2019-02-26T10:53:01.749Z,12.40
2019-02-26T10:55:30.788Z,12.30
2019-02-26T10:57:54.825Z,12.50
2019-02-26T11:00:30.259Z,12.80
2019-02-26T11:02:55.676Z,13.20
2019-02-26T11:05:26.223Z,14.10
2019-02-26T11:07:52.544Z,14.40
2019-02-26T11:10:20.833Z,13.90
2019-02-26T11:12:48.111Z,14.10
2019-02-26T11:15:21.466Z,13.80
2019-02-26T11:17:47.950Z,13.70
2019-02-26T11:20:18.875Z,14.10
2019-02-26T11:22:47.107Z,14.40
2019-02-26T11:25:18.411Z,14.70
2019-02-26T11:27:45.994Z,14.60
2019-02-26T11:30:20.582Z,15.30
2019-02-26T11:32:46.315Z,15.50
2019-02-26T11:35:14.488Z,15.60
2019-02-26T11:37:44.870Z,16.00
2019-02-26T11:40:20.309Z,15.80
2019-02-26T11:42:47.264Z,15.90
2019-02-26T11:45:17.431Z,16.10
2019-02-26T11:48:06.132Z,16.40
2019-02-26T11:50:32.172Z,15.90
2019-02-26T11:52:58.364Z,16.50
2019-02-26T11:55:26.882Z,16.70
2019-02-26T11:57:52.628Z,16.90
2019-02-26T12:00:45.526Z,17.10
2019-02-26T12:03:11.825Z,17.20
2019-02-26T12:05:39.598Z,17.40
2019-02-26T12:08:06.086Z,17.70
2019-02-26T12:10:34.981Z,17.80
2019-02-26T12:13:02.228Z,17.80
2019-02-26T12:15:30.259Z,17.80
2019-02-26T12:17:58.654Z,17.70
2019-02-26T12:20:24.686Z,17.80
2019-02-26T12:22:55.222Z,18.00
2019-02-26T12:25:20.799Z,18.00
2019-02-26T12:27:48.210Z,18.10
2019-02-26T12:30:25.648Z,18.10
2019-02-26T12:32:54.987Z,18.10
2019-02-26T12:35:20.694Z,18.20
2019-02-26T12:37:47.197Z,18.30
2019-02-26T12:40:19.210Z,18.50
2019-02-26T12:42:44.146Z,18.70
2019-02-26T12:45:13.647Z,18.70
2019-02-26T12:47:42.486Z,18.70
2019-02-26T12:50:16.152Z,18.90
2019-02-26T12:52:44.564Z,18.80
2019-02-26T12:55:12.483Z,18.90
2019-02-26T12:57:38.588Z,18.80
2019-02-26T13:00:20.064Z,18.90
2019-02-26T13:02:49.297Z,18.70
2019-02-26T13:05:18.860Z,18.90
2019-02-26T13:07:43.164Z,19.10
2019-02-26T13:10:12.640Z,19.30
2019-02-26T13:12:38.793Z,19.50
2019-02-26T13:15:09.766Z,19.40
2019-02-26T13:17:36.174Z,19.40
2019-02-26T13:20:10.801Z,19.40
2019-02-26T13:22:33.557Z,19.40
2019-02-26T13:25:00.653Z,19.60
2019-02-26T13:27:27.657Z,19.80
2019-02-26T13:29:56.983Z,19.80
2019-02-26T13:32:26.250Z,19.90
2019-02-26T13:34:52.483Z,19.80
2019-02-26T13:37:17.875Z,19.90
2019-02-26T13:39:45.462Z,19.80
2019-02-26T13:44:47.227Z,19.90
2019-02-26T13:47:13.488Z,20.00
2019-02-26T13:49:39.781Z,20.30
2019-02-26T13:52:05.873Z,20.20
2019-02-26T13:54:32.019Z,20.00
2019-02-26T13:56:58.103Z,20.10
2019-02-26T13:59:24.479Z,20.20
2019-02-26T14:01:52.893Z,20.50
2019-02-26T14:04:19.296Z,20.70
2019-02-26T14:06:45.495Z,20.70
2019-02-26T14:09:11.733Z,20.70
2019-02-26T14:11:37.915Z,20.80
2019-02-26T14:14:04.146Z,20.70
2019-02-26T14:16:32.608Z,20.60
2019-02-26T14:18:58.373Z,21.00
2019-02-26T14:21:24.604Z,21.40
2019-02-26T14:23:50.890Z,21.60
2019-02-26T14:26:17.182Z,22.40
2019-02-26T14:28:44.093Z,23.40
2019-02-26T14:31:10.306Z,24.10
2019-02-26T14:33:36.442Z,24.50
2019-02-26T14:36:02.762Z,24.10
2019-02-26T14:38:29.104Z,24.50
2019-02-26T14:40:55.440Z,25.30
2019-02-26T14:43:21.644Z,26.40
2019-02-26T14:45:47.750Z,27.10
2019-02-26T14:48:13.935Z,28.40
2019-02-26T14:50:40.211Z,28.30
2019-02-26T14:53:06.330Z,28.80
2019-02-26T14:55:32.441Z,28.00
2019-02-26T14:57:58.626Z,28.10
2019-02-26T15:00:30.264Z,28.20
2019-02-26T15:02:56.392Z,28.70
2019-02-26T15:05:22.918Z,28.70
2019-02-26T15:07:49.161Z,29.00
2019-02-26T15:10:15.828Z,28.90
2019-02-26T15:12:41.961Z,28.00
2019-02-26T15:15:15.790Z,27.60
2019-02-26T15:17:42.082Z,27.60
2019-02-26T15:20:22.136Z,27.40
2019-02-26T15:22:48.220Z,27.00
2019-02-26T15:25:17.768Z,26.70
2019-02-26T15:27:44.027Z,26.20
2019-02-26T15:30:13.037Z,26.00
2019-02-26T15:32:39.261Z,25.40
2019-02-26T15:35:05.470Z,25.40
2019-02-26T15:37:31.810Z,24.70
2019-02-26T15:39:58.134Z,23.70
2019-02-26T15:42:26.677Z,23.70
2019-02-26T15:44:52.900Z,24.10
2019-02-26T15:47:19.047Z,24.10
2019-02-26T15:49:45.227Z,24.20
2019-02-26T15:52:11.336Z,24.60
2019-02-26T15:54:37.420Z,23.60
2019-02-26T15:57:03.510Z,22.00
2019-02-26T15:59:29.735Z,20.50
2019-02-26T16:01:56.062Z,19.50
2019-02-26T16:04:22.309Z,18.70
2019-02-26T16:06:48.441Z,18.00
2019-02-26T16:09:14.852Z,17.40
2019-02-26T16:11:41.600Z,16.90
2019-02-26T16:14:07.743Z,16.60
2019-02-26T16:16:33.976Z,16.30
2019-02-26T16:19:00.749Z,16.10
2019-02-26T16:21:27.466Z,15.80
2019-02-26T16:23:53.663Z,15.60
2019-02-26T16:26:19.752Z,15.40
2019-02-26T16:28:45.889Z,15.30
2019-02-26T16:31:12.058Z,15.20
2019-02-26T16:33:38.309Z,15.00
2019-02-26T16:36:04.742Z,14.80
2019-02-26T16:38:31.217Z,14.80
2019-02-26T16:40:57.473Z,14.60
2019-02-26T16:43:23.680Z,14.40
2019-02-26T16:45:49.961Z,14.20
2019-02-26T16:48:16.077Z,14.00
2019-02-26T16:50:45.191Z,13.70
2019-02-26T16:53:10.256Z,13.40
2019-02-26T16:55:36.416Z,13.30
2019-02-26T16:58:03.397Z,13.20
2019-02-26T17:00:30.708Z,13.00
2019-02-26T17:02:59.700Z,12.90
2019-02-26T17:05:25.201Z,12.60
2019-02-26T17:07:51.773Z,12.50
2019-02-26T17:10:19.279Z,12.50
2019-02-26T17:12:47.404Z,12.20
2019-02-26T17:15:16.386Z,11.90
2019-02-26T17:17:42.518Z,11.80
2019-02-26T17:20:09.242Z,11.50
2019-02-26T17:22:35.967Z,11.30
2019-02-26T17:25:04.364Z,11.20
2019-02-26T17:27:30.496Z,11.20
2019-02-26T17:29:56.638Z,11.20
2019-02-26T17:32:22.838Z,11.30
2019-02-26T17:34:48.920Z,11.20
2019-02-26T17:37:15.299Z,11.10
2019-02-26T17:39:41.394Z,11.00
2019-02-26T17:42:07.507Z,10.70
2019-02-26T17:44:33.659Z,10.40
2019-02-26T17:46:59.844Z,10.10
2019-02-26T17:49:26.102Z,9.90
2019-02-26T17:51:52.342Z,9.70
2019-02-26T17:54:18.550Z,9.70
2019-02-26T17:56:44.698Z,9.70
2019-02-26T17:59:10.923Z,9.60
2019-02-26T18:01:37.050Z,9.70
2019-02-26T18:04:03.359Z,9.70
2019-02-26T18:06:29.515Z,9.70
2019-02-26T18:08:56.470Z,9.50
2019-02-26T18:11:23.596Z,9.50
2019-02-26T18:13:50.283Z,9.10
2019-02-26T18:16:16.843Z,8.90
2019-02-26T18:18:43.140Z,8.90
2019-02-26T18:21:09.424Z,8.90
2019-02-26T18:23:37.758Z,8.80
2019-02-26T18:26:03.762Z,8.80
2019-02-26T18:28:30.949Z,8.80
2019-02-26T18:30:57.202Z,8.80
2019-02-26T18:33:23.375Z,8.70
2019-02-26T18:35:49.595Z,8.70
2019-02-26T18:38:17.368Z,8.50
2019-02-26T18:40:43.705Z,8.40
2019-02-26T18:43:14.022Z,8.40
2019-02-26T18:45:38.159Z,8.20
2019-02-26T18:48:04.280Z,8.20
2019-02-26T18:50:30.633Z,8.10
2019-02-26T18:52:58.200Z,8.10
2019-02-26T18:55:27.933Z,8.00
2019-02-26T18:57:54.408Z,7.90
2019-02-26T19:00:29.304Z,7.80
2019-02-26T19:02:55.511Z,7.90
2019-02-26T19:05:23.620Z,7.60
2019-02-26T19:07:50.069Z,7.50
2019-02-26T19:10:20.546Z,7.40
2019-02-26T19:12:45.488Z,7.40
2019-02-26T19:15:14.821Z,7.40
2019-02-26T19:17:43.329Z,7.40
2019-02-26T19:20:12.749Z,7.20
2019-02-26T19:22:40.159Z,7.10
2019-02-26T19:25:06.881Z,7.10
2019-02-26T19:27:34.789Z,7.10
2019-02-26T19:30:04.033Z,7.10
2019-02-26T19:32:29.023Z,7.10
2019-02-26T19:34:55.103Z,7.10
2019-02-26T19:37:22.477Z,7.10
2019-02-26T19:39:48.741Z,7.00
2019-02-26T19:42:17.397Z,6.70
2019-02-26T19:44:43.016Z,6.90
2019-02-26T19:47:09.239Z,7.00
2019-02-26T19:49:36.837Z,7.00
2019-02-26T19:52:03.503Z,6.80
2019-02-26T19:54:29.700Z,6.70
2019-02-26T19:56:57.079Z,6.60
2019-02-26T19:59:23.959Z,6.60
2019-02-26T20:01:50.459Z,6.60
2019-02-26T20:04:16.628Z,6.50
2019-02-26T20:06:42.743Z,6.40
2019-02-26T20:09:09.247Z,6.30
2019-02-26T20:11:35.370Z,6.30
2019-02-26T20:14:04.748Z,6.30
2019-02-26T20:16:29.581Z,6.30
2019-02-26T20:18:56.743Z,6.30
2019-02-26T20:21:23.690Z,6.10
2019-02-26T20:23:49.836Z,6.00
2019-02-26T20:26:16.474Z,6.00
2019-02-26T20:28:43.322Z,5.80
2019-02-26T20:31:09.637Z,5.70
2019-02-26T20:33:35.896Z,5.50
2019-02-26T20:36:02.067Z,5.40
2019-02-26T20:38:32.059Z,5.40
2019-02-26T20:40:56.252Z,5.30
2019-02-26T20:43:22.406Z,5.40
2019-02-26T20:45:50.938Z,5.60
2019-02-26T20:48:16.665Z,5.70
2019-02-26T20:50:43.027Z,5.80
2019-02-26T20:53:09.133Z,5.90
2019-02-26T20:55:35.296Z,6.00
2019-02-26T20:58:01.458Z,5.90
2019-02-26T21:00:28.190Z,5.90
2019-02-26T21:02:54.540Z,5.80
2019-02-26T21:05:20.928Z,5.80
2019-02-26T21:07:47.071Z,5.60
2019-02-26T21:10:16.042Z,5.50
2019-02-26T21:12:42.298Z,5.60
2019-02-26T21:15:13.643Z,5.60
2019-02-26T21:17:39.236Z,5.60
2019-02-26T21:20:08.528Z,5.80
2019-02-26T21:22:34.684Z,6.00
2019-02-26T21:25:00.929Z,6.00
2019-02-26T21:27:27.153Z,5.80
2019-02-26T21:29:53.229Z,5.70
2019-02-26T21:32:19.436Z,5.60
2019-02-26T21:34:47.597Z,5.60
2019-02-26T21:37:13.526Z,5.50
2019-02-26T21:39:43.547Z,5.50
2019-02-26T21:42:07.652Z,5.50
2019-02-26T21:44:33.758Z,5.50
2019-02-26T21:47:00.039Z,5.50
2019-02-26T21:49:26.283Z,5.40
2019-02-26T21:51:52.465Z,5.50
2019-02-26T21:54:18.641Z,5.60
2019-02-26T21:56:48.729Z,5.60
2019-02-26T21:59:12.968Z,5.60
2019-02-26T22:01:41.260Z,5.60
2019-02-26T22:04:07.421Z,5.70
2019-02-26T22:06:33.522Z,5.60
2019-02-26T22:08:59.609Z,5.60
2019-02-26T22:11:25.828Z,5.60
2019-02-26T22:13:51.983Z,5.60
2019-02-26T22:16:18.435Z,5.70
2019-02-26T22:18:44.742Z,5.70
2019-02-26T22:21:10.970Z,5.70
2019-02-26T22:23:37.085Z,5.60
2019-02-26T22:26:03.335Z,5.60
2019-02-26T22:28:29.515Z,5.60
2019-02-26T22:30:56.414Z,5.50
2019-02-26T22:33:22.713Z,5.60
2019-02-26T22:35:48.800Z,5.70
2019-02-26T22:38:15.429Z,5.80
2019-02-26T22:40:42.307Z,5.90
2019-02-26T22:43:08.556Z,6.10
2019-02-26T22:45:34.803Z,6.10
2019-02-26T22:48:00.932Z,6.00
2019-02-26T22:50:27.204Z,6.00
2019-02-26T22:52:53.944Z,5.80
2019-02-26T22:55:20.108Z,5.70
2019-02-26T22:57:46.446Z,5.50
2019-02-26T23:00:18.368Z,5.40
2019-02-26T23:02:44.492Z,5.40
2019-02-26T23:05:10.606Z,5.40
2019-02-26T23:07:39.388Z,5.60
2019-02-26T23:10:05.077Z,5.80
2019-02-26T23:12:31.374Z,5.80
2019-02-26T23:14:58.074Z,5.80
2019-02-26T23:17:24.905Z,5.90
2019-02-26T23:19:52.233Z,6.10
2019-02-26T23:22:22.986Z,6.10
2019-02-26T23:24:46.859Z,5.90
2019-02-26T23:27:15.143Z,5.70
2019-02-26T23:29:42.907Z,5.60
2019-02-26T23:32:09.396Z,5.50
2019-02-26T23:34:35.828Z,5.40
2019-02-26T23:37:02.591Z,5.30
2019-02-26T23:39:29.067Z,5.30
2019-02-26T23:41:55.498Z,5.10
2019-02-26T23:44:21.894Z,5.10
2019-02-26T23:46:48.087Z,5.10
2019-02-26T23:49:14.890Z,5.10
2019-02-26T23:51:41.126Z,5.00
2019-02-26T23:54:07.974Z,5.00
2019-02-26T23:56:34.260Z,5.20
2019-02-26T23:59:01.718Z,5.20
